Time;durP1;ratioP1;P1;durP2;ratioP2;P2;SDS_P1;SDS_P2;PMS_P1;PMS_P2;Temp;Humidity;BMP_temperature;BMP_pressure;BME280_temperature;BME280_humidity;BME280_pressure;Samples;Min_cycle;Max_cycle;Signal;HPM_P1;HPM_P2
2022/01/26 00:07:05;;;;;;;;;;;;;;;22.63;36.39;103208.78;7280101;19;152752;-50
2022/01/26 00:09:32;;;;;;;;;;;;;;;22.62;36.12;103209.91;7281549;19;153820;-50
2022/01/26 00:11:59;;;;;;;;;;;;;;;22.60;36.05;103196.09;7280512;19;152048;-50
2022/01/26 00:14:26;;;;;;;;;;;;;;;22.59;35.91;103191.56;7276350;19;153694;-50
2022/01/26 00:16:53;;;;;;;;;;;;;;;22.58;35.99;103183.38;7279174;19;153797;-50
2022/01/26 00:19:23;;;;;;;;;;;;;;;22.57;36.17;103184.50;7279773;19;152013;-50
2022/01/26 00:21:52;;;;;;;;;;;;;;;22.55;36.13;103181.94;7277978;19;153313;-50
2022/01/26 00:29:29;;;;;;;;;;;;;;;22.49;36.38;103170.88;7280413;19;152611;-50
2022/01/26 00:39:46;;;;;;;;;;;;;;;22.39;36.27;103170.81;7277290;19;152024;-50
2022/01/26 00:42:13;;;;;;;;;;;;;;;22.35;36.65;103167.66;7275540;19;153263;-50
2022/01/26 00:44:45;;;;;;;;;;;;;;;22.34;36.45;103165.97;7277661;19;154255;-50
2022/01/26 00:47:12;;;;;;;;;;;;;;;22.30;36.63;103158.34;7287211;19;152268;-50
2022/01/26 00:49:40;;;;;;;;;;;;;;;22.26;36.73;103162.81;7277461;19;153931;-50
2022/01/26 00:52:11;;;;;;;;;;;;;;;22.24;36.74;103160.25;7279415;19;151994;-51
2022/01/26 00:54:38;;;;;;;;;;;;;;;22.19;36.88;103154.56;7279268;19;153581;-51
2022/01/26 00:57:05;;;;;;;;;;;;;;;22.17;36.99;103157.63;7278119;19;153497;-50
2022/01/26 00:59:32;;;;;;;;;;;;;;;22.14;37.47;103163.78;7285068;19;151816;-51
2022/01/26 01:01:59;;;;;;;;;;;;;;;22.12;37.26;103159.56;7283472;19;153694;-51
2022/01/26 01:04:26;;;;;;;;;;;;;;;22.08;37.62;103155.56;7281704;19;153931;-51
2022/01/26 01:06:58;;;;;;;;;;;;;;;22.04;37.61;103160.00;7284695;19;151769;-50
2022/01/26 01:09:25;;;;;;;;;;;;;;;22.02;37.51;103151.84;7290168;19;152659;-51
2022/01/26 01:11:56;;;;;;;;;;;;;;;22.01;37.72;103146.47;7284124;19;151640;-51
2022/01/26 01:14:23;;;;;;;;;;;;;;;21.97;37.72;103156.56;7287020;19;154185;-51
2022/01/26 01:16:52;;;;;;;;;;;;;;;21.95;37.98;103151.19;7285976;19;153733;-50
2022/01/26 01:29:41;;;;;;;;;;;;;;;21.78;38.14;103158.00;7282873;19;153192;-50
2022/01/26 01:32:14;;;;;;;;;;;;;;;21.73;38.56;103155.97;7291675;19;153462;-50
2022/01/26 01:34:41;;;;;;;;;;;;;;;21.70;38.45;103164.94;7282221;19;152247;-50
2022/01/26 01:37:09;;;;;;;;;;;;;;;21.65;38.56;103162.06;7281357;19;153972;-51
2022/01/26 01:39:37;;;;;;;;;;;;;;;21.65;38.43;103156.44;7281978;19;152770;-50
2022/01/26 01:42:06;;;;;;;;;;;;;;;21.59;38.98;103155.53;7282051;19;153485;-50
2022/01/26 01:44:34;;;;;;;;;;;;;;;21.57;38.81;103159.72;7281044;19;152404;-50
2022/01/26 01:47:01;;;;;;;;;;;;;;;21.52;38.99;103166.13;7283041;19;151936;-50
2022/01/26 01:49:27;;;;;;;;;;;;;;;21.48;38.77;103156.53;7284681;19;153513;-50
2022/01/26 01:51:59;;;;;;;;;;;;;;;21.45;38.85;103161.78;7280694;19;153435;-50
2022/01/26 01:54:26;;;;;;;;;;;;;;;21.41;38.91;103152.19;7291760;19;152138;-50
2022/01/26 01:56:55;;;;;;;;;;;;;;;21.36;39.02;103143.66;7285868;19;153337;-50
2022/01/26 01:59:23;;;;;;;;;;;;;;;21.32;39.09;103148.13;7285811;19;151550;-51
2022/01/26 02:01:49;;;;;;;;;;;;;;;21.30;39.22;103139.97;7280733;19;153276;-50
2022/01/26 02:04:16;;;;;;;;;;;;;;;21.26;38.99;103139.59;7280146;19;154198;-50
2022/01/26 02:06:43;;;;;;;;;;;;;;;21.21;39.25;103150.78;7284679;19;151910;-50
2022/01/26 02:09:11;;;;;;;;;;;;;;;21.19;39.06;103154.97;7282877;19;153775;-50
2022/01/26 02:11:48;;;;;;;;;;;;;;;21.15;39.05;103153.78;7278341;19;153069;-50
2022/01/26 02:17:03;;;;;;;;;;;;;;;21.08;39.25;103145.50;7289781;19;152974;-50
2022/01/26 02:51:07;;;;;;;;;;;;;;;20.54;39.63;103137.88;7280071;19;154112;-50
2022/01/26 02:53:48;;;;;;;;;;;;;;;20.50;39.28;103148.78;7279317;19;153392;-50
2022/01/26 03:06:36;;;;;;;;;;;;;;;20.34;39.34;103133.66;7279666;19;153230;-50
2022/01/26 03:09:09;;;;;;;;;;;;;;;20.32;39.34;103129.38;7280398;19;151861;-50
2022/01/26 03:11:38;;;;;;;;;;;;;;;20.30;39.51;103132.47;7281059;19;153176;-50
2022/01/26 03:14:17;;;;;;;;;;;;;;;20.27;39.92;103124.50;7280174;19;153485;-50
2022/01/26 03:16:50;;;;;;;;;;;;;;;20.25;39.44;103128.66;7282539;19;151734;-51
2022/01/26 03:19:22;;;;;;;;;;;;;;;20.20;39.65;103134.19;7279593;19;152136;-51
2022/01/26 03:34:40;;;;;;;;;;;;;;;19.98;40.19;103134.94;7279858;19;153385;-51
2022/01/26 03:37:08;;;;;;;;;;;;;;;19.96;40.49;103139.91;7281097;19;152031;-51
2022/01/26 03:39:42;;;;;;;;;;;;;;;19.96;40.46;103159.56;7281735;19;152733;-51
2022/01/26 03:42:13;;;;;;;;;;;;;;;19.91;40.17;103150.19;7277057;19;153773;-51
2022/01/26 03:44:40;;;;;;;;;;;;;;;19.87;40.40;103130.22;7281907;19;152452;-51
2022/01/26 03:47:07;;;;;;;;;;;;;;;19.83;40.44;103125.34;7287659;19;152909;-51
2022/01/26 03:49:35;;;;;;;;;;;;;;;19.80;40.29;103118.31;7279958;19;152143;-51
2022/01/26 03:52:02;;;;;;;;;;;;;;;19.78;40.45;103100.84;7280011;19;152986;-51
2022/01/26 03:54:29;;;;;;;;;;;;;;;19.73;40.41;103089.53;7278812;19;153466;-51
2022/01/26 03:56:56;;;;;;;;;;;;;;;19.74;40.37;103096.00;7281352;19;151666;-51
2022/01/26 03:59:22;;;;;;;;;;;;;;;19.74;40.11;103096.84;7279071;19;153291;-51
2022/01/26 04:01:49;;;;;;;;;;;;;;;19.68;40.59;103094.19;7278200;19;153843;-51
2022/01/26 04:04:16;;;;;;;;;;;;;;;19.66;40.64;103091.66;7278173;19;152262;-50
2022/01/26 04:06:43;;;;;;;;;;;;;;;19.66;40.24;103085.19;7280727;19;155660;-51
2022/01/26 04:09:11;;;;;;;;;;;;;;;19.63;40.30;103066.88;7287512;19;153643;-50
2022/01/26 04:11:42;;;;;;;;;;;;;;;19.60;40.30;103077.75;7278244;19;153105;-51
2022/01/26 04:14:12;;;;;;;;;;;;;;;19.59;40.35;103065.69;7278930;19;152907;-51
2022/01/26 04:16:40;;;;;;;;;;;;;;;19.53;40.60;103059.13;7277633;19;152560;-51
2022/01/26 04:19:07;;;;;;;;;;;;;;;19.52;40.31;103073.41;7277811;19;152707;-51
2022/01/26 04:24:13;;;;;;;;;;;;;;;19.46;40.64;103088.44;7280359;19;152058;-51
2022/01/26 04:26:47;;;;;;;;;;;;;;;19.46;40.36;103091.22;7280731;19;153420;-51
2022/01/26 04:29:21;;;;;;;;;;;;;;;19.44;40.33;103108.28;7278287;19;153312;-51
2022/01/26 04:31:48;;;;;;;;;;;;;;;19.42;40.34;103112.41;7288475;19;151975;-52
2022/01/26 04:34:15;;;;;;;;;;;;;;;19.38;40.75;103114.88;7280630;19;153923;-51
2022/01/26 04:36:54;;;;;;;;;;;;;;;19.36;40.62;103119.88;7284769;19;151911;-51
2022/01/26 04:39:27;;;;;;;;;;;;;;;19.32;40.65;103135.47;7284362;19;154611;-51
2022/01/26 04:41:59;;;;;;;;;;;;;;;19.30;40.73;103136.84;7283813;19;153831;-50
2022/01/26 04:44:32;;;;;;;;;;;;;;;19.25;40.80;103133.91;7283863;19;153858;-51
2022/01/26 04:46:59;;;;;;;;;;;;;;;19.24;40.71;103135.88;7286200;19;153237;-51
2022/01/26 04:49:25;;;;;;;;;;;;;;;19.20;41.00;103125.41;7282941;19;153781;-50
2022/01/26 04:51:52;;;;;;;;;;;;;;;19.20;41.12;103133.81;7292850;19;152038;-51
2022/01/26 04:54:19;;;;;;;;;;;;;;;19.19;40.97;103127.34;7282981;19;152737;-51
2022/01/26 04:56:45;;;;;;;;;;;;;;;19.22;40.89;103135.25;7286184;19;151883;-51
2022/01/26 04:59:12;;;;;;;;;;;;;;;19.24;40.56;103135.88;7286004;19;153454;-50
2022/01/26 05:01:39;;;;;;;;;;;;;;;19.29;41.19;103138.78;7280825;19;152816;-50
2022/01/26 05:04:06;;;;;;;;;;;;;;;19.31;41.14;103144.13;7283679;19;152244;-50
2022/01/26 05:06:33;;;;;;;;;;;;;;;19.34;41.10;103141.69;7285959;19;152248;-51
2022/01/26 05:08:59;;;;;;;;;;;;;;;19.37;40.99;103131.94;7281669;19;153860;-51
2022/01/26 05:11:32;;;;;;;;;;;;;;;19.42;41.30;103132.03;7284890;19;152192;-51
2022/01/26 05:13:59;;;;;;;;;;;;;;;19.45;41.57;103123.16;7290211;19;153216;-51
2022/01/26 05:16:26;;;;;;;;;;;;;;;19.49;41.85;103124.38;7283702;19;152479;-51
2022/01/26 05:18:54;;;;;;;;;;;;;;;19.54;41.87;103116.06;7282763;19;152905;-51
2022/01/26 05:21:21;;;;;;;;;;;;;;;19.62;41.82;103106.41;7283879;19;152746;-51
2022/01/26 05:23:48;;;;;;;;;;;;;;;19.68;41.52;103116.63;7283382;19;152175;-50
2022/01/26 05:26:15;;;;;;;;;;;;;;;19.73;41.60;103109.16;7284987;19;153562;-51
2022/01/26 05:28:42;;;;;;;;;;;;;;;19.80;41.35;103104.28;7282784;19;154284;-51
2022/01/26 05:31:08;;;;;;;;;;;;;;;19.86;41.34;103116.41;7285939;19;152420;-51
2022/01/26 05:33:35;;;;;;;;;;;;;;;19.92;41.28;103116.28;7285590;19;152885;-51
2022/01/26 05:36:04;;;;;;;;;;;;;;;19.98;41.03;103115.28;7288941;19;152679;-51
2022/01/26 05:38:30;;;;;;;;;;;;;;;20.05;40.77;103122.66;7284234;19;152152;-51
2022/01/26 05:41:01;;;;;;;;;;;;;;;20.12;40.54;103131.81;7284268;19;153541;-51
2022/01/26 05:43:29;;;;;;;;;;;;;;;20.16;40.53;103122.63;7280260;19;151991;-51
2022/01/26 05:46:00;;;;;;;;;;;;;;;20.23;40.50;103125.25;7279819;19;153276;-51
2022/01/26 05:48:27;;;;;;;;;;;;;;;20.30;40.54;103131.59;7282521;19;153011;-51
2022/01/26 05:51:03;;;;;;;;;;;;;;;20.35;41.11;103137.31;7282183;19;152122;-51
2022/01/26 05:53:30;;;;;;;;;;;;;;;20.41;40.70;103136.28;7283957;19;153183;-51
2022/01/26 05:55:58;;;;;;;;;;;;;;;20.46;40.88;103130.75;7281784;19;155063;-51
2022/01/26 05:58:25;;;;;;;;;;;;;;;20.52;40.65;103123.28;7291260;19;151694;-50
2022/01/26 06:00:52;;;;;;;;;;;;;;;20.56;40.71;103111.28;7281355;19;152476;-51
2022/01/26 06:03:19;;;;;;;;;;;;;;;20.62;40.69;103110.25;7282056;19;152322;-51
2022/01/26 06:05:46;;;;;;;;;;;;;;;20.67;40.45;103110.31;7283580;19;152860;-51
2022/01/26 06:08:12;;;;;;;;;;;;;;;20.72;40.35;103118.81;7281937;19;152466;-51
2022/01/26 06:10:39;;;;;;;;;;;;;;;20.76;40.46;103122.81;7282915;19;152231;-50
2022/01/26 06:13:06;;;;;;;;;;;;;;;20.81;40.26;103119.22;7284416;19;153325;-50
2022/01/26 06:15:37;;;;;;;;;;;;;;;20.87;40.43;103115.41;7283923;19;153650;-51
2022/01/26 06:18:03;;;;;;;;;;;;;;;20.91;39.91;103104.50;7282049;19;151978;-51
2022/01/26 06:20:30;;;;;;;;;;;;;;;20.94;40.31;103113.25;7290227;19;153200;-51
2022/01/26 06:22:57;;;;;;;;;;;;;;;21.00;40.26;103117.00;7285810;19;151681;-51
2022/01/26 06:25:23;;;;;;;;;;;;;;;21.04;39.87;103115.34;7283892;19;153411;-51
2022/01/26 06:27:52;;;;;;;;;;;;;;;21.09;40.32;103118.25;7281520;19;153918;-51
2022/01/26 06:30:19;;;;;;;;;;;;;;;21.12;40.11;103129.00;7283694;19;152310;-51
2022/01/26 06:32:47;;;;;;;;;;;;;;;21.16;39.67;103130.19;7283964;19;153220;-51
2022/01/26 06:35:19;;;;;;;;;;;;;;;21.20;39.79;103131.38;7281440;19;153046;-51
2022/01/26 06:37:46;;;;;;;;;;;;;;;21.24;39.75;103129.75;7281686;19;151976;-50
2022/01/26 06:40:13;;;;;;;;;;;;;;;21.28;39.90;103128.97;7281371;19;151839;-50
2022/01/26 06:42:52;;;;;;;;;;;;;;;21.32;39.47;103120.00;7286521;19;154200;-51
2022/01/26 06:45:22;;;;;;;;;;;;;;;21.36;39.70;103118.34;7281465;19;153931;-51
2022/01/26 06:50:25;;;;;;;;;;;;;;;21.42;39.59;103108.88;7283452;19;152109;-51
2022/01/26 06:52:52;;;;;;;;;;;;;;;21.47;39.50;103109.81;7280789;19;154235;-51
2022/01/26 06:55:19;;;;;;;;;;;;;;;21.51;39.44;103107.31;7280241;19;152844;-51
2022/01/26 06:57:46;;;;;;;;;;;;;;;21.53;39.60;103111.56;7283319;19;152328;-51
2022/01/26 07:00:13;;;;;;;;;;;;;;;21.56;39.54;103110.19;7281293;19;154002;-50
2022/01/26 07:02:40;;;;;;;;;;;;;;;21.59;39.42;103113.31;7290522;19;153961;-51
2022/01/26 07:05:09;;;;;;;;;;;;;;;21.64;39.24;103120.97;7279830;19;152698;-51
2022/01/26 07:07:36;;;;;;;;;;;;;;;21.65;39.02;103112.28;7281867;19;153819;-50
2022/01/26 07:10:04;;;;;;;;;;;;;;;21.70;38.98;103103.03;7283677;19;151638;-50
2022/01/26 07:12:35;;;;;;;;;;;;;;;21.71;39.14;103108.38;7279075;19;151980;-51
2022/01/26 07:23:00;;;;;;;;;;;;;;;21.85;38.91;103119.25;7280483;19;153406;-52
2022/01/26 07:25:27;;;;;;;;;;;;;;;21.87;38.74;103122.63;7288540;19;152163;-52
2022/01/26 07:27:56;;;;;;;;;;;;;;;21.91;38.49;103132.25;7278252;19;153981;-51
2022/01/26 07:30:22;;;;;;;;;;;;;;;21.93;38.33;103135.69;7281661;19;151857;-51
2022/01/26 07:32:49;;;;;;;;;;;;;;;21.96;38.26;103136.00;7280476;19;153466;-51
2022/01/26 07:35:16;;;;;;;;;;;;;;;21.97;37.54;103142.50;7278528;19;154218;-52
2022/01/26 07:37:44;;;;;;;;;;;;;;;21.93;36.51;103138.50;7279833;19;151862;-52
2022/01/26 07:40:13;;;;;;;;;;;;;;;21.90;35.86;103133.34;7279313;19;153328;-53
2022/01/26 07:42:40;;;;;;;;;;;;;;;21.88;35.58;103138.41;7278206;19;153643;-52
2022/01/26 07:45:08;;;;;;;;;;;;;;;21.87;35.96;103136.72;7283035;19;151895;-53
2022/01/26 07:47:36;;;;;;;;;;;;;;;21.87;35.54;103131.94;7285531;19;152140;-52
2022/01/26 07:50:06;;;;;;;;;;;;;;;21.86;35.38;103133.03;7281378;19;151951;-53
2022/01/26 07:52:37;;;;;;;;;;;;;;;21.85;35.63;103138.97;7280714;19;152793;-53
2022/01/26 07:55:05;;;;;;;;;;;;;;;21.85;35.41;103145.41;7278234;19;153874;-51
2022/01/26 07:57:31;;;;;;;;;;;;;;;21.86;35.40;103135.00;7278769;19;152112;-52
2022/01/26 07:59:58;;;;;;;;;;;;;;;21.83;34.88;103132.72;7280045;19;153248;-53
2022/01/26 08:02:25;;;;;;;;;;;;;;;21.82;35.13;103148.75;7280546;19;153601;-51
2022/01/26 08:04:52;;;;;;;;;;;;;;;21.81;35.20;103146.19;7277551;19;151963;-51
2022/01/26 08:07:19;;;;;;;;;;;;;;;21.81;35.27;103157.47;7280924;19;152743;-52
2022/01/26 08:09:45;;;;;;;;;;;;;;;21.79;34.99;103152.13;7293473;19;153264;-52
2022/01/26 08:12:15;;;;;;;;;;;;;;;21.79;35.37;103154.06;7283518;19;153118;-53
2022/01/26 08:14:42;;;;;;;;;;;;;;;21.77;34.75;103159.09;7284907;19;154415;-52
2022/01/26 08:17:09;;;;;;;;;;;;;;;21.80;34.88;103162.25;7285242;19;152106;-52
2022/01/26 08:19:37;;;;;;;;;;;;;;;21.82;35.13;103157.22;7287175;19;153114;-52
2022/01/26 08:22:04;;;;;;;;;;;;;;;21.80;35.18;103159.44;7283914;19;154022;-52
2022/01/26 08:24:31;;;;;;;;;;;;;;;21.76;34.73;103152.63;7285920;19;151636;-51
2022/01/26 08:27:04;;;;;;;;;;;;;;;21.71;35.12;103155.41;7283792;19;152569;-51
2022/01/26 08:29:38;;;;;;;;;;;;;;;21.66;34.85;103156.19;7283546;19;153911;-51
2022/01/26 08:32:05;;;;;;;;;;;;;;;21.63;34.53;103153.88;7292356;19;153055;-51
2022/01/26 08:34:32;;;;;;;;;;;;;;;21.61;34.88;103155.28;7283000;19;152301;-51
2022/01/26 08:36:59;;;;;;;;;;;;;;;21.59;34.85;103155.53;7284862;19;151703;-52
2022/01/26 08:39:26;;;;;;;;;;;;;;;21.55;35.34;103151.53;7288539;19;152452;-50
2022/01/26 08:41:53;;;;;;;;;;;;;;;21.52;35.19;103154.88;7286244;19;154249;-50
2022/01/26 08:44:19;;;;;;;;;;;;;;;21.50;35.19;103153.44;7284643;19;152110;-50
2022/01/26 08:46:46;;;;;;;;;;;;;;;21.47;35.66;103159.59;7284033;19;152351;-50
2022/01/26 08:49:13;;;;;;;;;;;;;;;21.44;35.59;103155.31;7285379;19;154760;-50
2022/01/26 08:51:40;;;;;;;;;;;;;;;21.42;35.34;103154.75;7286642;19;152244;-50
2022/01/26 08:54:08;;;;;;;;;;;;;;;21.41;35.91;103155.00;7289853;19;152658;-50
2022/01/26 08:56:35;;;;;;;;;;;;;;;21.37;35.87;103163.09;7286224;19;152332;-50
2022/01/26 08:59:02;;;;;;;;;;;;;;;21.35;35.72;103153.25;7286565;19;152857;-50
2022/01/26 09:01:29;;;;;;;;;;;;;;;21.34;35.69;103146.75;7281132;19;152195;-49
2022/01/26 09:03:56;;;;;;;;;;;;;;;21.36;35.72;103150.16;7285123;19;151647;-50
2022/01/26 09:06:23;;;;;;;;;;;;;;;21.37;36.10;103151.00;7284855;19;153266;-50
2022/01/26 09:08:58;;;;;;;;;;;;;;;21.39;36.48;103151.59;7284567;19;154271;-49
2022/01/26 09:11:25;;;;;;;;;;;;;;;21.41;36.44;103152.19;7281222;19;152104;-54
2022/01/26 09:13:57;;;;;;;;;;;;;;;21.43;36.40;103152.78;7293310;19;152832;-50
2022/01/26 09:16:25;;;;;;;;;;;;;;;21.46;36.41;103152.25;7288411;19;151735;-50
2022/01/26 09:18:57;;;;;;;;;;;;;;;21.46;36.51;103141.84;7286470;19;152864;-50
2022/01/26 09:21:25;;;;;;;;;;;;;;;21.47;36.77;103143.56;7284255;19;153885;-50
2022/01/26 09:23:51;;;;;;;;;;;;;;;21.48;36.51;103148.09;7285274;19;151924;-50
2022/01/26 09:26:18;;;;;;;;;;;;;;;21.49;36.48;103146.94;7285151;19;152773;-50
2022/01/26 09:28:45;;;;;;;;;;;;;;;21.50;36.21;103133.72;7281251;19;153450;-53
2022/01/26 09:31:14;;;;;;;;;;;;;;;21.49;36.37;103141.31;7284647;19;152151;-50
2022/01/26 09:33:41;;;;;;;;;;;;;;;21.49;36.39;103132.88;7283569;19;152852;-51
2022/01/26 09:36:08;;;;;;;;;;;;;;;21.49;36.26;103135.69;7290205;19;153561;-50
2022/01/26 09:38:35;;;;;;;;;;;;;;;21.49;36.51;103132.88;7282911;19;152670;-50
2022/01/26 09:41:03;;;;;;;;;;;;;;;21.48;36.32;103130.34;7283723;19;154082;-50
2022/01/26 09:43:31;;;;;;;;;;;;;;;21.47;36.30;103135.13;7281546;19;152669;-50
2022/01/26 09:45:58;;;;;;;;;;;;;;;21.47;36.17;103148.34;7283304;19;153353;-50
2022/01/26 09:48:25;;;;;;;;;;;;;;;21.44;36.35;103135.63;7280963;19;154201;-50
2022/01/26 09:50:55;;;;;;;;;;;;;;;21.43;36.54;103133.94;7283361;19;152389;-50
2022/01/26 09:53:28;;;;;;;;;;;;;;;21.41;36.56;103138.97;7284948;19;152603;-50
2022/01/26 09:55:55;;;;;;;;;;;;;;;21.41;36.34;103144.59;7283659;19;153809;-50
2022/01/26 09:58:21;;;;;;;;;;;;;;;21.43;36.64;103145.19;7290781;19;152186;-50
2022/01/26 10:00:56;;;;;;;;;;;;;;;21.40;36.80;103137.25;7280638;19;152384;-50
2022/01/26 10:03:27;;;;;;;;;;;;;;;21.37;36.31;103128.50;7271691;19;152256;-50
2022/01/26 10:05:56;;;;;;;;;;;;;;;21.35;36.26;103125.13;7279969;19;155766;-50
2022/01/26 10:08:49;;;;;;;;;;;;;;;21.33;36.44;103118.88;7283071;19;152486;-50
2022/01/26 10:19:00;;;;;;;;;;;;;;;21.21;36.53;103125.47;7286302;19;151854;-50
2022/01/26 10:21:27;;;;;;;;;;;;;;;21.20;36.21;103131.38;7289076;19;153329;-50
2022/01/26 10:23:54;;;;;;;;;;;;;;;21.17;36.18;103135.53;7278768;19;151949;-50
2022/01/26 10:26:21;;;;;;;;;;;;;;;21.17;36.52;103132.72;7280329;19;152126;-50
2022/01/26 10:28:49;;;;;;;;;;;;;;;21.13;36.41;103137.19;7283736;19;154231;-50
2022/01/26 10:31:19;;;;;;;;;;;;;;;21.12;36.22;103154.28;7282765;19;152331;-50
2022/01/26 10:34:06;;;;;;;;;;;;;;;21.08;36.57;103155.88;7284205;19;151761;-50
2022/01/26 10:36:35;;;;;;;;;;;;;;;21.06;36.40;103161.78;7282783;19;153751;-50
2022/01/26 10:39:05;;;;;;;;;;;;;;;21.03;36.60;103148.22;7282422;19;152507;-50
2022/01/26 10:41:32;;;;;;;;;;;;;;;21.00;36.59;103150.72;7282908;19;153094;-50
2022/01/26 10:44:01;;;;;;;;;;;;;;;20.96;36.53;103150.38;7288921;19;152719;-49
2022/01/26 10:46:31;;;;;;;;;;;;;;;20.93;36.68;103152.88;7281169;19;152338;-50
2022/01/26 10:49:07;;;;;;;;;;;;;;;20.91;36.39;103161.53;7283744;19;153582;-49
2022/01/26 10:54:27;;;;;;;;;;;;;;;20.85;36.34;103152.19;7279841;19;152821;-50
2022/01/26 10:56:54;;;;;;;;;;;;;;;20.86;36.57;103151.06;7284356;19;153463;-50
2022/01/26 10:59:21;;;;;;;;;;;;;;;20.89;36.54;103144.09;7283196;19;151725;-49
2022/01/26 11:01:48;;;;;;;;;;;;;;;20.92;36.59;103152.00;7280677;19;152618;-49
2022/01/26 11:04:15;;;;;;;;;;;;;;;20.96;36.74;103160.78;7276653;19;153833;-50
2022/01/26 11:06:43;;;;;;;;;;;;;;;20.99;36.33;103172.34;7289520;19;152303;-50
2022/01/26 11:09:13;;;;;;;;;;;;;;;21.04;36.37;103165.94;7283261;19;153770;-50
2022/01/26 11:11:40;;;;;;;;;;;;;;;21.07;36.72;103165.44;7281601;19;151622;-49
2022/01/26 11:14:15;;;;;;;;;;;;;;;21.11;36.45;103161.00;7283415;19;153434;-50
2022/01/26 11:16:53;;;;;;;;;;;;;;;21.15;36.70;103163.09;7281449;19;154641;-50
2022/01/26 11:19:21;;;;;;;;;;;;;;;21.20;36.25;103171.59;7280035;19;152286;-50
2022/01/26 11:21:48;;;;;;;;;;;;;;;21.24;36.30;103160.66;7282823;19;153328;-50
2022/01/26 11:24:18;;;;;;;;;;;;;;;21.28;36.59;103150.59;7280051;19;153392;-50
2022/01/26 11:26:47;;;;;;;;;;;;;;;21.33;36.46;103150.69;7291207;19;152169;-50
2022/01/26 11:29:15;;;;;;;;;;;;;;;21.37;36.54;103153.81;7278570;19;154134;-50
2022/01/26 11:31:42;;;;;;;;;;;;;;;21.41;36.25;103147.41;7281698;19;151921;-50
2022/01/26 11:34:17;;;;;;;;;;;;;;;21.44;36.08;103137.63;7280512;19;153745;-50
2022/01/26 11:36:44;;;;;;;;;;;;;;;21.49;36.25;103137.66;7276501;19;153954;-51
2022/01/26 11:42:15;;;;;;;;;;;;;;;21.52;36.34;103121.13;7281240;19;152217;-50
2022/01/26 11:47:20;;;;;;;;;;;;;;;21.65;36.14;103103.84;7280119;19;152616;-49
2022/01/26 11:49:50;;;;;;;;;;;;;;;21.69;36.21;103101.34;7285707;19;153699;-50
2022/01/26 11:52:21;;;;;;;;;;;;;;;21.72;36.21;103093.22;7278405;19;154217;-50
2022/01/26 11:54:52;;;;;;;;;;;;;;;21.76;35.99;103089.91;7279040;19;153349;-50
2022/01/26 11:57:35;;;;;;;;;;;;;;;21.78;35.87;103093.28;7278468;19;154040;-50
2022/01/26 12:00:06;;;;;;;;;;;;;;;21.81;35.80;103092.72;7280192;19;152245;-51
2022/01/26 12:02:51;;;;;;;;;;;;;;;21.81;35.70;103087.09;7281786;19;153609;-50
2022/01/26 12:05:21;;;;;;;;;;;;;;;21.81;35.83;103087.09;7277986;19;153944;-50
2022/01/26 12:07:50;;;;;;;;;;;;;;;21.82;35.74;103080.38;7278343;19;152156;-50
2022/01/26 12:10:24;;;;;;;;;;;;;;;21.82;35.78;103088.81;7278924;19;152607;-50
2022/01/26 12:12:59;;;;;;;;;;;;;;;21.82;35.49;103077.56;7287039;19;153721;-50
2022/01/26 12:15:27;;;;;;;;;;;;;;;21.82;35.65;103075.59;7279169;19;153424;-51
2022/01/26 12:18:12;;;;;;;;;;;;;;;21.82;35.70;103066.28;7278985;19;153707;-50
2022/01/26 12:34:16;;;;;;;;;;;;;;;21.70;35.55;103050.44;7278471;19;152529;-50
2022/01/26 12:39:15;;;;;;;;;;;;;;;21.67;35.11;103050.09;7275615;19;154020;-50
2022/01/26 12:41:52;;;;;;;;;;;;;;;21.64;35.45;103042.19;7277370;19;152158;-51
2022/01/26 12:44:19;;;;;;;;;;;;;;;21.62;35.52;103042.44;7278320;19;154602;-50
2022/01/26 12:46:46;;;;;;;;;;;;;;;21.59;35.23;103031.75;7273281;19;153489;-50
2022/01/26 12:49:18;;;;;;;;;;;;;;;21.58;35.14;103017.94;7277818;19;151892;-52
2022/01/26 12:51:47;;;;;;;;;;;;;;;21.54;35.10;103012.00;7274516;19;153370;-50
2022/01/26 12:54:15;;;;;;;;;;;;;;;21.52;35.40;103019.88;7278455;19;153695;-50
2022/01/26 12:56:42;;;;;;;;;;;;;;;21.50;35.14;103012.78;7284812;19;151922;-51
2022/01/26 12:59:12;;;;;;;;;;;;;;;21.47;35.04;103010.50;7291620;19;152747;-51
2022/01/26 13:01:40;;;;;;;;;;;;;;;21.45;35.02;103004.28;7285338;19;152727;-50
2022/01/26 13:04:08;;;;;;;;;;;;;;;21.42;35.52;102994.44;7287209;19;153660;-50
2022/01/26 13:06:37;;;;;;;;;;;;;;;21.41;35.08;102994.69;7280750;19;154623;-50
2022/01/26 13:09:14;;;;;;;;;;;;;;;21.35;34.99;102993.78;7282118;19;152085;-50
2022/01/26 13:11:41;;;;;;;;;;;;;;;21.35;35.43;102984.53;7284488;19;152618;-50
2022/01/26 13:14:19;;;;;;;;;;;;;;;21.32;35.46;102977.44;7283370;19;152202;-50
2022/01/26 13:16:56;;;;;;;;;;;;;;;21.29;35.25;102981.66;7285134;19;151706;-50
2022/01/26 13:22:14;;;;;;;;;;;;;;;21.24;35.42;102963.88;7292877;19;151779;-50
2022/01/26 13:27:23;;;;;;;;;;;;;;;21.27;35.41;102977.38;7281500;19;153914;-51
2022/01/26 13:30:16;;;;;;;;;;;;;;;21.25;35.21;102965.56;7283953;19;151916;-52
2022/01/26 13:53:04;;;;;;;;;;;;;;;21.07;38.71;102947.06;7284779;19;153125;-51
2022/01/26 13:55:46;;;;;;;;;;;;;;;21.03;38.77;102942.25;7277871;19;154597;-51
2022/01/26 14:00:53;;;;;;;;;;;;;;;20.94;37.76;102941.81;7283899;19;153060;-50
2022/01/26 14:03:22;;;;;;;;;;;;;;;20.89;37.63;102938.13;7281309;19;154436;-51
2022/01/26 14:05:49;;;;;;;;;;;;;;;20.86;37.44;102945.09;7286397;19;151994;-51
2022/01/26 14:08:16;;;;;;;;;;;;;;;20.86;37.12;102926.28;7278486;19;153778;-50
2022/01/26 14:10:46;;;;;;;;;;;;;;;20.87;36.91;102929.94;7281483;19;151849;-51
2022/01/26 14:13:18;;;;;;;;;;;;;;;20.89;36.48;102932.50;7281328;19;153748;-51
2022/01/26 14:15:48;;;;;;;;;;;;;;;20.91;36.51;102931.13;7281583;19;154188;-50
2022/01/26 14:20:54;;;;;;;;;;;;;;;20.94;36.20;102929.75;7284261;19;152419;-51
2022/01/26 14:25:49;;;;;;;;;;;;;;;20.99;35.92;102912.94;7281445;19;152426;-51
2022/01/26 14:28:20;;;;;;;;;;;;;;;21.03;36.17;102909.31;7285042;19;152968;-50
2022/01/26 14:30:57;;;;;;;;;;;;;;;21.04;35.93;102910.19;7279718;19;153524;-51
2022/01/26 14:50:56;;;;;;;;;;;;;;;21.15;36.01;102929.75;7282346;19;153719;-51
2022/01/26 14:54:25;;;;;;;;;;;;;;;21.30;35.20;102912.22;7283051;19;153936;-51
2022/01/26 15:43:42;;;;;;;;;;;;;;;21.24;35.26;102883.19;7279822;19;153611;-52
2022/01/26 15:59:24;;;;;;;;;;;;;;;21.11;35.43;102866.72;7286921;19;152962;-49
2022/01/26 16:07:04;;;;;;;;;;;;;;;21.05;34.98;102876.19;7277630;19;153324;-50
2022/01/26 16:28:16;;;;;;;;;;;;;;;21.15;35.15;102850.19;7274354;19;153227;-49
2022/01/26 16:35:47;;;;;;;;;;;;;;;21.18;35.49;102835.59;7282910;19;152332;-49
2022/01/26 17:13:08;;;;;;;;;;;;;;;21.08;35.22;102829.84;7283821;19;151886;-49
2022/01/26 17:26:35;;;;;;;;;;;;;;;21.01;35.01;102846.09;7283675;19;152916;-49
2022/01/26 17:34:35;;;;;;;;;;;;;;;20.98;35.24;102835.38;7285194;19;152437;-49
2022/01/26 17:46:55;;;;;;;;;;;;;;;20.84;34.82;102849.84;7281717;19;154347;-49
2022/01/26 18:49:57;;;;;;;;;;;;;;;20.14;35.60;102851.72;7277854;19;153391;-50
2022/01/26 18:52:23;;;;;;;;;;;;;;;20.10;35.99;102839.31;7281437;19;151829;-49
2022/01/26 18:54:50;;;;;;;;;;;;;;;20.06;35.86;102826.94;7282005;19;153106;-50
2022/01/26 18:57:17;;;;;;;;;;;;;;;20.02;35.93;102821.00;7282173;19;153686;-50
2022/01/26 18:59:45;;;;;;;;;;;;;;;19.98;35.96;102806.66;7279170;19;151962;-50
2022/01/26 19:02:12;;;;;;;;;;;;;;;19.97;35.81;102813.34;7279567;19;153543;-49
2022/01/26 19:04:59;;;;;;;;;;;;;;;19.92;35.78;102802.06;7289244;19;155390;-49
2022/01/26 19:07:26;;;;;;;;;;;;;;;19.91;35.79;102807.91;7269512;19;153683;-50
2022/01/26 19:09:54;;;;;;;;;;;;;;;19.88;36.13;102805.66;7275817;19;157113;-50
2022/01/26 19:12:23;;;;;;;;;;;;;;;19.85;35.76;102807.00;7275250;19;152068;-51